Station: Pirlangimpi  

  Atmospheric Gas Attenuation - ITU Rec 676-11   ----------------- dB/100km -----------------
Date Time Temp RH % AH g/m3 Dew Point Wind Direction Speed kph Gust kph Barometer mB Rainfall Since 9am 24GHz 47GHz 76GHz 122GHz 134GHz 241GHz
08/05 12:00 29.9 52 15.69 19 13 22 1011.5 0 33.5 32.1 58.3 154.1 164.7 572.3
08/05 11:50 29.7 50 14.92 18.4 11 19 1011.7 0 32.0 30.9 55.4 146.3 155.1 538.7
08/05 11:40 29.2 50 14.52 18 11 15 1011.7 0 31.2 30.5 54.2 143.0 150.9 524.0
08/05 11:30 29 52 14.94 18.4 17 26 1011.9 0 32.0 31.2 56.0 147.9 156.8 544.5
08/05 11:20 28.8 51 14.49 17.9 15 20 1012 0 31.1 30.6 54.3 143.5 151.3 525.4
08/05 11:10 29.1 51 14.73 18.2 17 20 1012.2 0 31.6 30.8 55.1 145.5 153.9 534.3
08/05 11:00 28.6 53 14.9 18.1 15 22 1012.3 0 32.0 31.3 56.1 148.2 157.1 545.6
08/05 10:50 28.6 52 14.62 18 13 15 1012.4 0 31.4 30.9 55.0 145.3 153.5 532.8
08/05 10:40 28.2 55 15.12 18.3 11 15 1012.4 0 32.5 31.8 57.3 151.4 160.9 558.6
08/05 10:30 27.9 56 15.15 18.3 9 17 1012.5 0 32.6 32.0 57.7 152.3 161.9 562.1
08/05 10:20 28 57 15.5 18.9 7 9 1012.6 0 33.3 32.5 59.0 155.9 166.4 577.8
08/05 10:10 27.6 57 15.16 18.3 11 17 1012.6 0 32.6 32.1 57.9 153.0 162.7 564.8
08/05 10:00 27.2 58 15.09 18.2 11 19 1012.7 0 32.5 32.1 57.9 153.0 162.6 564.5
08/05 09:50 27.1 58 15.01 18.1 7 9 1012.7 0 32.3 32.0 57.7 152.3 161.7 561.4
08/05 09:40 26.8 57 14.51 17.8 9 13 1012.8 0 31.3 31.3 55.9 147.5 155.6 540.2
08/05 09:30 26.9 60 15.36 18.5 7 15 1012.7 0 33.1 32.7 59.3 156.6 166.9 579.4
08/05 09:20 26.4 60 14.94 18 9 11 1012.8 0 32.2 32.2 57.9 152.9 162.3 563.2
08/05 09:10 26 61 14.85 17.9 6 9 1012.8 0 32.1 32.2 57.8 152.7 161.9 561.8
08/05 09:00 25.8 63 15.17 18.2 9 13 1012.6 0 32.8 32.8 59.3 156.7 166.7 578.5
08/05 08:50 25.2 64 14.9 17.9 7 9 1012.5 0 32.3 32.6 58.6 154.8 164.2 569.9
08/05 08:40 25.1 67 15.51 18.5 9 13 1012.5 0 33.6 33.6 61.3 161.9 172.9 600.3
08/05 08:30 24.5 67 14.99 18 9 17 1012.4 0 32.5 33.0 59.5 157.2 167.0 579.4
08/05 08:20 24.2 68 14.96 17.9 11 15 1012.3 0 32.5 33.0 59.6 157.5 167.2 580.2
08/05 08:10 23.8 68 14.63 17.7 9 11 1012.2 0 31.8 32.6 58.5 154.5 163.4 567.0
08/05 08:00 23.3 71 14.84 17.7 7 13 1012 0 32.3 33.2 59.8 157.9 167.4 580.9
08/05 07:50 22.9 70 14.3 17.3 6 9 1012 0 31.2 32.4 57.8 152.5 160.7 557.4
08/05 07:40 22.7 70 14.14 17.1 7 9 1011.9 0 30.8 32.2 57.2 151.1 158.9 551.0
08/05 07:30 22.4 72 14.3 17.1 6 9 1011.8 0 31.2 32.5 58.1 153.5 161.7 560.9
08/05 07:20 22.2 73 14.33 17.1 6 7 1011.8 0 31.3 32.7 58.4 154.2 162.6 563.8
08/05 07:10 22.1 73 14.25 17 6 7 1011.7 0 31.1 32.6 58.1 153.5 161.7 560.6
08/05 07:00 22 73 14.17 16.9 6 9 1011.6 0 31.0 32.5 57.9 152.8 160.7 557.3
08/05 06:50 22 73 14.17 16.9 7 7 1011.6 0 31.0 32.5 57.9 152.8 160.7 557.3
08/05 06:40 22 74 14.36 17.1 6 7 1011.5 0 31.4 32.8 58.7 154.9 163.4 566.7
08/05 06:30 22.2 73 14.33 17.1 7 9 1011.4 0 31.3 32.7 58.4 154.2 162.5 563.7
08/05 06:20 22.4 70 13.9 16.8 7 9 1011.3 0 30.4 31.8 56.4 148.9 156.1 541.2
08/05 06:10 22.4 69 13.7 16.6 6 7 1011.2 0 29.9 31.5 55.5 146.6 153.3 531.4
08/05 06:00 22.5 70 13.98 16.8 7 9 1011.3 0 30.5 31.9 56.7 149.6 157.0 544.3
08/05 05:50 22.4 69 13.7 16.6 6 7 1011.1 0 29.9 31.5 55.5 146.6 153.3 531.4
08/05 05:40 22.6 69 13.86 16.6 6 7 1011.1 0 30.3 31.7 56.1 148.0 155.1 537.7
08/05 05:30 22.7 69 13.94 16.7 6 9 1011.1 0 30.4 31.8 56.3 148.7 156.0 540.9
08/05 05:20 23 67 13.77 16.5 6 7 1011 0 30.0 31.4 55.4 146.2 153.0 530.6
08/05 05:10 23.1 67 13.85 16.6 6 9 1011 0 30.2 31.5 55.7 146.9 153.9 533.8
08/05 05:00 23.1 66 13.64 16.4 7 15 1011 0 29.8 31.1 54.8 144.6 151.1 523.7
08/05 04:50 23.2 66 13.72 16.5 9 11 1011 0 29.9 31.2 55.1 145.3 152.0 526.9
08/05 04:40 23.2 67 13.93 16.7 7 13 1011 0 30.4 31.6 55.9 147.6 154.8 536.9
08/05 04:30 23 68 13.98 16.8 7 11 1010.9 0 30.5 31.7 56.3 148.6 155.9 540.7
08/05 04:20 23.1 67 13.85 16.8 6 7 1010.9 0 30.2 31.5 55.7 146.9 153.9 533.7
08/05 04:10 23.1 67 13.85 16.8 9 11 1010.9 0 30.2 31.5 55.7 146.9 153.9 533.7
08/05 04:00 23.1 68 14.06 16.9 7 11 1010.9 0 30.7 31.8 56.5 149.3 156.8 543.8
08/05 03:50 22.9 70 14.3 17.1 6 7 1010.9 0 31.2 32.3 57.7 152.4 160.6 556.9
08/05 03:40 22.9 70 14.3 17.1 9 11 1011 0 31.2 32.3 57.7 152.4 160.6 557.0
08/05 03:30 23 71 14.59 17.5 7 13 1011 0 31.8 32.8 58.9 155.5 164.5 570.4
08/05 03:20 23 70 14.39 17.4 7 9 1011 0 31.4 32.4 58.0 153.2 161.6 560.6
08/05 03:10 22.9 73 14.92 17.8 6 9 1011 0 32.5 33.4 60.4 159.5 169.3 587.5
08/05 03:00 22.9 73 14.92 17.8 6 9 1011 0 32.5 33.4 60.4 159.5 169.3 587.5
08/05 02:50 22.9 74 15.12 18 6 6 1011.1 0 32.9 33.8 61.3 161.8 172.2 597.5
08/05 02:40 23 74 15.21 18.1 6 7 1011.2 0 33.1 33.9 61.6 162.7 173.3 601.2
08/05 02:30 23 74 15.21 18.1 6 7 1011.3 0 33.1 33.9 61.6 162.7 173.3 601.3
08/05 02:20 23.1 73 15.09 18 6 7 1011.3 0 32.8 33.6 61.0 161.1 171.4 594.5
08/05 02:10 23.3 71 14.84 17.7 7 7 1011.3 0 32.3 33.1 59.8 157.8 167.4 580.6
08/05 02:00 23.2 72 14.97 17.9 6 9 1011.4 0 32.6 33.4 60.4 159.5 169.4 587.8
08/05 01:50 23.3 72 15.05 18.1 6 7 1011.5 0 32.7 33.5 60.7 160.3 170.4 591.1
08/05 01:40 23.4 71 14.93 18 6 9 1011.5 0 32.5 33.2 60.1 158.7 168.4 584.4
08/05 01:30 23.3 73 15.26 18.2 4 7 1011.6 0 33.2 33.9 61.6 162.7 173.4 601.6
08/05 01:20 23.1 73 15.09 18 6 7 1011.6 0 32.8 33.6 61.0 161.1 171.4 594.6
08/05 01:10 23.2 73 15.18 18.1 6 7 1011.7 0 33.0 33.8 61.3 162.0 172.5 598.4
08/05 01:00 23.3 73 15.26 18.2 6 9 1011.8 0 33.2 33.9 61.6 162.7 173.4 601.6
08/05 00:50 23.3 71 14.84 17.9 6 7 1011.8 0 32.3 33.1 59.8 157.9 167.4 580.8
08/05 00:40 22.7 75 15.15 18 4 6 1011.9 0 33.0 33.9 61.6 162.7 173.2 600.9
08/05 00:30 22.3 81 15.99 18.9 4 6 1012 0 34.8 35.6 65.7 173.6 186.4 646.9
08/05 00:20 22.5 78 15.58 18.6 4 4 1012.1 0 33.9 34.8 63.7 168.3 179.9 624.3
08/05 00:10 22.8 75 15.24 18.1 6 6 1012.2 0 33.2 34.1 61.9 163.6 174.3 604.7
08/05 00:00 22.7 77 15.56 18.5 4 6 1012.1 0 33.9 34.7 63.4 167.6 179.2 621.6
07/05 23:50 22.6 75 15.07 17.9 4 6 1012.2 0 32.8 33.8 61.4 162.0 172.3 597.8
07/05 23:40 22.1 79 15.42 18.4 2 4 1012.2 0 33.6 34.7 63.3 167.2 178.6 619.4
07/05 23:30 22.4 76 15.09 18 4 6 1012.2 0 32.9 33.9 61.6 162.7 173.1 600.3
07/05 23:20 22.3 78 15.4 18.4 4 4 1012.3 0 33.6 34.5 63.1 166.6 177.8 616.8
07/05 23:10 22.3 78 15.4 18.4 4 4 1012.4 0 33.6 34.6 63.1 166.6 177.8 616.9
07/05 23:00 22.8 79 16.05 19 2 4 1012.5 0 34.9 35.5 65.6 173.3 186.1 646.0
07/05 22:50 23.2 75 15.59 18.5 2 2 1012.5 0 33.9 34.5 63.2 166.9 178.5 619.3
07/05 22:40 23.5 67 14.17 17.2 4 4 1012.5 0 30.8 31.9 56.8 149.9 157.7 547.0
07/05 22:30 23.5 69 14.59 17.5 4 6 1012.5 0 31.7 32.7 58.6 154.7 163.6 567.4
07/05 22:20 23.2 71 14.76 17.8 6 6 1012.4 0 32.1 33.1 59.5 157.2 166.6 577.9
07/05 22:10 23.4 71 14.93 18 4 4 1012.5 0 32.5 33.3 60.1 158.8 168.6 584.8
07/05 22:00 23.2 72 14.97 17.9 4 6 1012.6 0 32.6 33.4 60.5 159.7 169.6 588.3
07/05 21:50 23.6 70 14.89 17.8 4 6 1012.5 0 32.4 33.1 59.8 157.9 167.6 581.3
07/05 21:40 23.7 71 15.19 18.1 4 6 1012.5 0 33.0 33.6 61.0 161.2 171.6 595.4
07/05 21:30 23.4 70 14.72 17.6 6 6 1012.5 0 32.0 32.9 59.2 156.4 165.6 574.5
07/05 21:20 23.1 77 15.92 18.8 4 6 1012.6 0 34.6 35.2 64.7 171.0 183.5 636.9
07/05 21:10 23.5 75 15.86 18.8 6 6 1012.6 0 34.4 34.9 64.1 169.5 181.7 630.5
07/05 21:00 23.4 73 15.35 18.3 4 6 1012.5 0 33.4 34.0 62.0 163.7 174.5 605.7
07/05 20:50 23.5 72 15.23 18.3 4 6 1012.4 0 33.1 33.8 61.4 162.0 172.6 598.8
07/05 20:40 23.6 72 15.31 18.4 4 4 1012.4 0 33.3 33.9 61.6 162.8 173.5 602.0
07/05 20:30 23.9 71 15.36 18.3 4 6 1012.3 0 33.3 33.8 61.6 162.7 173.5 602.1
07/05 20:20 24.2 68 14.96 17.9 4 6 1012.3 0 32.5 33.0 59.6 157.5 167.2 580.2
07/05 20:10 24.2 69 15.18 18.3 4 4 1012.2 0 32.9 33.4 60.6 160.0 170.3 590.9
07/05 20:00 24.3 68 15.05 18.2 4 6 1012.1 0 32.7 33.1 59.9 158.3 168.2 583.7
07/05 19:50 24.4 72 16.02 19 4 4 1011.9 0 34.7 34.8 64.1 169.3 181.7 630.9
07/05 19:40 24.7 69 15.62 18.6 4 4 1011.9 0 33.8 34.0 62.1 164.0 175.3 608.5
07/05 19:30 24.9 66 15.11 18.1 4 4 1011.7 0 32.7 33.0 59.7 157.7 167.7 581.9

Last Refresh: 08-May-2026 12:08:17

Bureau of Meteorology